Time;durP1;ratioP1;P1;durP2;ratioP2;P2;SDS_P1;SDS_P2;PMS_P1;PMS_P2;Temp;Humidity;BMP_temperature;BMP_pressure;BME280_temperature;BME280_humidity;BME280_pressure;Samples;Min_cycle;Max_cycle;Signal;HPM_P1;HPM_P2
2021/07/20 00:00:42;;;;;;;21.57;11.37;;;;;;;14.17;77.75;101545.56;4996812;28;20494;-59
2021/07/20 00:03:11;;;;;;;15.20;7.93;;;;;;;14.36;77.35;101540.22;4997951;28;20461;-59
2021/07/20 00:05:39;;;;;;;15.77;8.20;;;;;;;14.54;76.48;101540.03;4996499;28;20524;-59
2021/07/20 00:08:09;;;;;;;13.67;6.10;;;;;;;14.63;76.10;101535.19;4997562;28;20487;-59
2021/07/20 00:10:39;;;;;;;12.07;5.63;;;;;;;14.37;76.37;101542.88;4996635;28;20490;-58
2021/07/20 00:13:07;;;;;;;13.97;5.60;;;;;;;14.22;77.19;101544.84;4997700;28;20589;-59
2021/07/20 00:15:36;;;;;;;11.90;7.57;;;;;;;14.48;77.16;101544.97;4998818;28;20925;-59
2021/07/20 00:18:07;;;;;;;11.47;6.07;;;;;;;14.63;76.23;101539.50;4997479;28;20877;-58
2021/07/20 00:20:35;;;;;;;11.40;5.10;;;;;;;14.48;76.42;101534.59;4996407;28;20478;-58
2021/07/20 00:23:04;;;;;;;17.03;5.70;;;;;;;14.45;76.47;101532.75;4997898;28;20495;-59
2021/07/20 00:25:33;;;;;;;13.93;8.10;;;;;;;14.50;76.77;101533.84;4998439;28;20457;-59
2021/07/20 00:28:01;;;;;;;14.17;5.97;;;;;;;14.51;76.57;101534.72;4997281;28;20484;-59
2021/07/20 00:30:29;;;;;;;16.73;8.50;;;;;;;14.50;76.95;101533.84;4997250;28;20496;-59
2021/07/20 00:32:57;;;;;;;10.03;5.37;;;;;;;14.42;76.77;101530.94;4996862;28;20458;-59
2021/07/20 00:35:24;;;;;;;12.20;5.30;;;;;;;14.53;76.38;101533.06;4997026;28;20471;-59
2021/07/20 00:37:52;;;;;;;9.97;5.70;;;;;;;14.47;76.52;101535.44;4995767;28;20578;-59
2021/07/20 00:40:20;;;;;;;9.37;5.53;;;;;;;14.40;76.94;101536.88;4997235;28;20647;-59
2021/07/20 00:42:50;;;;;;;9.93;5.53;;;;;;;14.25;77.36;101540.66;4995163;28;20493;-58
2021/07/20 00:45:18;;;;;;;12.17;6.60;;;;;;;14.36;77.39;101546.28;4997217;28;20464;-59
2021/07/20 00:47:46;;;;;;;10.00;6.07;;;;;;;14.40;76.87;101542.09;4995484;28;20485;-59
2021/07/20 00:50:16;;;;;;;11.50;5.90;;;;;;;14.56;76.75;101538.38;4996905;28;20490;-59
2021/07/20 00:52:43;;;;;;;12.57;5.83;;;;;;;14.34;76.69;101542.75;4995825;28;20482;-61
2021/07/20 00:55:12;;;;;;;10.20;6.30;;;;;;;14.22;77.43;101547.44;4996823;28;20495;-61
2021/07/20 00:57:41;;;;;;;11.97;5.50;;;;;;;14.06;78.26;101536.47;4995260;28;20497;-61
2021/07/20 01:00:13;;;;;;;10.13;5.60;;;;;;;13.88;79.05;101537.50;4996595;28;20503;-61
2021/07/20 01:02:41;;;;;;;9.13;5.93;;;;;;;13.82;79.34;101537.25;4995457;28;20489;-61
2021/07/20 01:05:10;;;;;;;14.70;5.80;;;;;;;13.85;79.60;101539.09;4996960;28;20462;-61
2021/07/20 01:07:40;;;;;;;9.57;5.73;;;;;;;14.00;79.63;101541.44;4995180;28;20512;-61
2021/07/20 01:10:09;;;;;;;15.93;5.40;;;;;;;14.21;79.38;101535.31;4996678;28;20486;-61
2021/07/20 01:12:38;;;;;;;15.93;6.83;;;;;;;14.15;78.69;101531.63;4995410;28;20488;-61
2021/07/20 01:15:07;;;;;;;14.00;5.83;;;;;;;14.11;78.93;101528.88;4998980;28;20499;-61
2021/07/20 01:17:37;;;;;;;10.37;5.90;;;;;;;14.09;78.96;101531.41;4995065;28;20492;-61
2021/07/20 01:20:09;;;;;;;10.23;5.57;;;;;;;13.99;79.25;101537.03;4996493;28;20496;-61
2021/07/20 01:22:38;;;;;;;9.47;6.00;;;;;;;13.82;79.95;101533.75;4995338;28;20485;-61
2021/07/20 01:25:11;;;;;;;13.03;6.37;;;;;;;13.94;80.02;101530.81;4996541;28;20468;-61
2021/07/20 01:27:41;;;;;;;11.37;5.97;;;;;;;14.04;79.77;101532.91;4994744;28;20486;-62
2021/07/20 01:30:09;;;;;;;12.03;5.87;;;;;;;14.14;79.35;101529.88;4996258;28;20494;-61
2021/07/20 01:32:37;;;;;;;12.03;6.20;;;;;;;14.11;79.44;101524.56;4995114;28;20489;-61
2021/07/20 01:35:07;;;;;;;13.87;7.10;;;;;;;14.07;79.33;101522.69;4996389;28;20491;-61
2021/07/20 01:37:35;;;;;;;12.40;6.90;;;;;;;14.24;79.75;101522.44;4991865;28;20500;-61
2021/07/20 01:40:03;;;;;;;12.17;6.33;;;;;;;14.22;78.73;101518.91;4996141;28;20481;-61
2021/07/20 01:42:33;;;;;;;12.57;7.17;;;;;;;13.98;78.93;101528.38;4994880;28;20502;-61
2021/07/20 01:45:01;;;;;;;13.93;6.23;;;;;;;13.82;79.97;101532.06;4996155;28;20479;-61
2021/07/20 01:47:29;;;;;;;11.30;6.67;;;;;;;14.04;80.24;101533.81;4994554;28;20802;-61
2021/07/20 01:49:58;;;;;;;11.60;6.00;;;;;;;13.96;79.77;101530.03;4995933;28;20483;-60
2021/07/20 01:52:26;;;;;;;12.50;6.53;;;;;;;13.72;80.09;101524.72;4994874;28;20491;-61
2021/07/20 01:54:54;;;;;;;9.70;6.00;;;;;;;13.70;80.52;101527.25;4996205;28;20493;-61
2021/07/20 01:57:21;;;;;;;13.63;7.40;;;;;;;13.52;81.00;101524.78;4994411;28;20948;-61
2021/07/20 01:59:50;;;;;;;12.53;7.30;;;;;;;13.43;81.76;101537.34;4995897;28;20538;-61
2021/07/20 02:02:28;;;;;;;13.13;6.70;;;;;;;13.41;82.04;101529.50;4994492;28;20482;-61
2021/07/20 02:10:37;;;;;;;14.43;7.40;;;;;;;13.88;81.03;101537.50;4960121;28;20492;-61
2021/07/20 02:13:05;;;;;;;12.93;7.47;;;;;;;13.86;80.38;101538.25;4996012;28;20599;-61
2021/07/20 02:15:38;;;;;;;19.00;7.57;;;;;;;13.73;80.60;101536.88;4994489;28;20485;-59
2021/07/20 02:18:06;;;;;;;14.27;7.23;;;;;;;13.77;80.69;101526.69;4995687;28;20497;-58
2021/07/20 02:20:39;;;;;;;15.00;7.60;;;;;;;13.70;80.52;101523.78;4996400;28;20471;-59
2021/07/20 02:23:07;;;;;;;12.30;6.97;;;;;;;13.54;80.96;101533.50;4986251;28;20492;-58
2021/07/20 02:25:35;;;;;;;12.43;7.60;;;;;;;13.44;81.61;101534.78;4994331;28;20464;-58
2021/07/20 02:28:21;;;;;;;17.03;7.17;;;;;;;13.53;81.84;101539.50;4995738;28;20473;-58
2021/07/20 02:30:51;;;;;;;15.57;7.60;;;;;;;13.59;81.72;101528.53;4994187;28;20481;-59
2021/07/20 02:33:20;;;;;;;13.90;7.50;;;;;;;13.55;81.60;101532.72;4995679;28;20984;-59
2021/07/20 02:35:50;;;;;;;15.00;6.90;;;;;;;13.53;82.02;101526.56;4986279;28;20760;-58
2021/07/20 02:38:18;;;;;;;16.50;8.60;;;;;;;13.60;81.95;101525.13;4995728;28;20470;-59
2021/07/20 02:40:46;;;;;;;12.63;6.77;;;;;;;13.66;81.87;101534.84;4994721;28;20487;-59
2021/07/20 02:43:14;;;;;;;19.83;8.10;;;;;;;13.52;82.24;101517.00;4995522;28;20841;-58
2021/07/20 02:45:42;;;;;;;12.33;6.53;;;;;;;13.70;82.58;101526.38;4994232;28;20463;-58
2021/07/20 02:48:12;;;;;;;15.00;7.70;;;;;;;13.88;81.72;101527.13;4995300;28;20557;-58
2021/07/20 02:50:39;;;;;;;24.43;7.90;;;;;;;13.81;81.15;101529.41;4994380;28;20489;-58
2021/07/20 02:53:07;;;;;;;12.13;7.30;;;;;;;13.74;81.17;101530.88;4995529;28;20496;-58
2021/07/20 02:55:36;;;;;;;13.13;7.37;;;;;;;13.85;81.33;101527.00;4994196;28;20480;-59
2021/07/20 02:58:05;;;;;;;19.57;8.20;;;;;;;13.73;81.26;101523.91;4995398;28;20495;-59
2021/07/20 03:00:32;;;;;;;12.53;7.97;;;;;;;13.67;81.76;101527.13;4994449;28;20514;-59
2021/07/20 03:03:00;;;;;;;15.77;7.70;;;;;;;13.81;81.97;101527.72;4995231;28;20492;-58
2021/07/20 03:05:30;;;;;;;18.40;7.70;;;;;;;14.00;81.31;101525.84;4997310;28;20523;-58
2021/07/20 03:07:59;;;;;;;19.10;7.67;;;;;;;13.98;80.75;101525.78;4998675;28;20479;-58
2021/07/20 03:10:30;;;;;;;11.40;6.90;;;;;;;13.81;80.79;101525.13;4998808;28;20479;-58
2021/07/20 03:13:02;;;;;;;16.10;7.90;;;;;;;13.63;81.47;101526.13;4998388;28;20468;-59
2021/07/20 03:15:30;;;;;;;14.00;7.77;;;;;;;13.53;81.72;101523.97;5001104;28;20519;-61
2021/07/20 03:18:00;;;;;;;15.43;8.33;;;;;;;13.52;81.86;101521.31;4979131;28;20472;-61
2021/07/20 03:20:29;;;;;;;15.67;8.53;;;;;;;13.55;82.00;101530.13;4979413;28;20474;-61
2021/07/20 03:22:58;;;;;;;18.50;8.30;;;;;;;13.40;82.16;101532.91;4978823;28;20475;-61
2021/07/20 03:25:27;;;;;;;14.57;7.93;;;;;;;13.49;82.14;101532.44;4978928;28;20462;-61
2021/07/20 03:27:56;;;;;;;17.80;8.53;;;;;;;13.50;82.16;101523.84;4997326;28;20475;-61
2021/07/20 03:30:25;;;;;;;15.80;8.30;;;;;;;13.42;82.49;101538.13;4998624;28;20482;-61
2021/07/20 03:32:53;;;;;;;18.53;8.93;;;;;;;13.32;82.43;101532.56;4997713;28;20486;-61
2021/07/20 03:35:21;;;;;;;16.07;8.30;;;;;;;13.44;82.28;101539.09;4998325;28;20526;-61
2021/07/20 03:37:50;;;;;;;13.20;8.63;;;;;;;13.24;82.92;101541.75;4997676;28;20485;-61
2021/07/20 03:40:17;;;;;;;18.23;7.77;;;;;;;12.99;83.76;101555.31;4998277;28;20482;-61
2021/07/20 03:42:45;;;;;;;15.97;9.50;;;;;;;13.09;84.04;101554.91;4997434;28;20803;-61
2021/07/20 03:45:14;;;;;;;16.40;9.10;;;;;;;12.86;84.23;101556.47;4998390;28;20458;-61
2021/07/20 03:47:43;;;;;;;13.13;7.87;;;;;;;12.88;84.62;101557.41;4999429;28;20481;-61
2021/07/20 03:50:12;;;;;;;19.33;9.70;;;;;;;13.00;84.64;101557.97;4998162;28;20480;-61
2021/07/20 03:52:40;;;;;;;16.43;8.90;;;;;;;13.01;84.78;101559.72;4996727;28;20489;-61
2021/07/20 03:55:10;;;;;;;15.40;8.80;;;;;;;13.08;84.62;101559.19;4998293;28;20540;-61
2021/07/20 03:57:38;;;;;;;17.33;8.63;;;;;;;13.25;84.94;101559.06;4996513;28;20936;-61
2021/07/20 04:00:07;;;;;;;16.30;8.23;;;;;;;12.91;85.13;101562.72;4997994;28;20500;-61
2021/07/20 04:02:45;;;;;;;23.70;9.37;;;;;;;12.94;85.06;101562.88;4997013;28;20498;-61
2021/07/20 04:05:13;;;;;;;15.30;9.40;;;;;;;13.13;84.53;101564.56;4997914;28;20545;-61
2021/07/20 04:07:42;;;;;;;17.80;8.87;;;;;;;12.80;85.32;101560.56;4996163;28;20494;-61
2021/07/20 04:10:13;;;;;;;17.30;9.70;;;;;;;13.15;85.06;101567.22;4997954;28;20504;-61
2021/07/20 04:12:41;;;;;;;18.10;9.57;;;;;;;13.11;84.41;101568.81;4996482;28;20489;-61
2021/07/20 04:15:09;;;;;;;15.70;9.60;;;;;;;12.96;84.89;101567.31;4997690;28;20930;-61
2021/07/20 04:17:38;;;;;;;16.60;8.90;;;;;;;13.05;84.83;101566.84;4997464;28;20478;-61
2021/07/20 04:20:07;;;;;;;18.23;9.70;;;;;;;13.27;84.96;101567.75;4997783;28;20835;-61
2021/07/20 04:22:34;;;;;;;15.27;9.27;;;;;;;13.14;84.84;101571.53;4998493;28;20478;-60
2021/07/20 04:25:02;;;;;;;19.33;9.60;;;;;;;13.51;84.54;101561.91;4997674;28;20493;-61
2021/07/20 04:27:31;;;;;;;19.40;9.17;;;;;;;13.64;83.36;101569.38;4996443;28;20489;-61
2021/07/20 04:29:59;;;;;;;15.93;8.77;;;;;;;13.66;82.93;101571.16;4997324;28;20483;-61
2021/07/20 04:32:27;;;;;;;15.20;8.90;;;;;;;13.54;82.99;101572.38;4995995;28;20487;-61
2021/07/20 04:34:56;;;;;;;16.93;8.60;;;;;;;13.68;83.10;101572.13;4997224;28;20469;-61
2021/07/20 04:37:25;;;;;;;16.73;8.93;;;;;;;13.74;82.81;101575.84;4995613;28;20487;-61
2021/07/20 04:39:54;;;;;;;16.60;8.70;;;;;;;13.81;82.43;101571.81;4997215;28;20475;-61
2021/07/20 04:42:21;;;;;;;18.90;8.60;;;;;;;13.96;82.04;101575.84;4995878;28;20782;-61
2021/07/20 04:44:50;;;;;;;11.90;8.10;;;;;;;13.88;81.66;101571.22;4996948;28;20458;-61
2021/07/20 04:47:20;;;;;;;11.73;8.30;;;;;;;13.94;81.37;101580.09;4995782;28;20487;-61
2021/07/20 04:49:47;;;;;;;13.80;8.10;;;;;;;14.11;81.28;101578.16;4997141;28;20460;-61
2021/07/20 04:52:15;;;;;;;13.10;7.33;;;;;;;14.13;81.07;101585.19;4995741;28;20484;-61
2021/07/20 04:54:44;;;;;;;15.17;8.60;;;;;;;14.09;80.85;101587.63;4996782;28;20461;-61
2021/07/20 04:57:11;;;;;;;21.47;10.77;;;;;;;14.23;80.49;101589.03;4995212;28;20484;-61
2021/07/20 04:59:40;;;;;;;13.23;7.57;;;;;;;14.30;80.01;101587.56;4996979;28;20473;-61
2021/07/20 05:02:14;;;;;;;18.00;8.00;;;;;;;14.30;79.84;101590.16;4995810;28;20485;-61
2021/07/20 05:04:43;;;;;;;13.30;7.20;;;;;;;14.16;79.64;101592.22;4996764;28;20464;-61
2021/07/20 05:07:12;;;;;;;13.70;7.37;;;;;;;14.20;80.26;101593.22;4995150;28;20480;-61
2021/07/20 05:09:41;;;;;;;16.80;8.23;;;;;;;14.38;79.80;101593.97;4996677;28;20778;-61
2021/07/20 05:12:09;;;;;;;12.60;6.67;;;;;;;14.54;79.24;101597.16;4995644;28;20773;-61
2021/07/20 05:14:36;;;;;;;9.90;6.60;;;;;;;14.45;78.97;101595.06;4996601;28;20458;-61
2021/07/20 05:17:05;;;;;;;15.40;6.80;;;;;;;14.61;79.03;101599.16;4995090;28;20856;-61
2021/07/20 05:19:34;;;;;;;18.17;7.20;;;;;;;14.82;78.42;101601.72;4996444;28;20461;-61
2021/07/20 05:22:02;;;;;;;12.30;6.43;;;;;;;14.88;77.90;101592.38;4995302;28;20491;-61
2021/07/20 05:24:31;;;;;;;11.90;6.40;;;;;;;14.95;77.03;101596.97;5006068;28;20472;-61
2021/07/20 05:26:59;;;;;;;12.77;6.90;;;;;;;14.93;77.03;101594.31;5014252;28;20486;-61
2021/07/20 05:29:27;;;;;;;12.37;6.10;;;;;;;14.94;76.42;101596.13;5016087;28;20462;-61
2021/07/20 05:31:56;;;;;;;16.60;5.90;;;;;;;14.76;77.36;101590.22;5014696;28;20535;-61
2021/07/20 05:34:23;;;;;;;11.70;5.67;;;;;;;14.91;76.78;101597.72;5016023;28;20461;-61
2021/07/20 05:36:52;;;;;;;10.73;5.80;;;;;;;15.04;77.29;101601.63;5014082;28;20938;-61
2021/07/20 05:39:20;;;;;;;17.57;5.57;;;;;;;15.25;76.69;101601.53;5015930;28;20921;-61
2021/07/20 05:41:48;;;;;;;8.87;5.40;;;;;;;15.20;75.70;101593.59;5014579;28;20987;-61
2021/07/20 05:44:16;;;;;;;9.03;5.40;;;;;;;15.39;75.96;101594.25;5015729;28;20635;-61
2021/07/20 05:46:44;;;;;;;11.13;5.90;;;;;;;15.17;75.04;101590.84;5014179;28;20481;-61
2021/07/20 05:49:12;;;;;;;14.80;5.40;;;;;;;15.22;75.00;101593.59;5015740;28;20570;-61
2021/07/20 05:51:41;;;;;;;8.53;4.90;;;;;;;15.14;75.66;101593.34;5014606;28;20478;-61
2021/07/20 05:54:10;;;;;;;19.47;7.93;;;;;;;15.12;76.23;101605.38;5016016;28;20465;-61
2021/07/20 05:56:38;;;;;;;13.60;5.23;;;;;;;15.22;76.32;101604.91;5013959;28;20483;-61
2021/07/20 05:59:06;;;;;;;18.00;6.70;;;;;;;15.35;75.58;101594.94;5015668;28;20469;-61
2021/07/20 06:01:33;;;;;;;24.77;9.30;;;;;;;15.43;75.34;101603.03;5014438;28;20756;-61
2021/07/20 06:04:02;;;;;;;12.80;5.90;;;;;;;15.50;74.67;101592.88;5015532;28;20520;-61
2021/07/20 06:06:30;;;;;;;13.03;7.30;;;;;;;15.50;74.84;101587.66;5014141;28;20466;-61
2021/07/20 06:09:01;;;;;;;33.40;16.93;;;;;;;15.43;74.92;101588.28;5015622;28;20460;-61
2021/07/20 06:11:31;;;;;;;14.13;6.77;;;;;;;15.63;74.52;101585.50;5014329;28;20478;-61
2021/07/20 06:14:00;;;;;;;13.37;7.17;;;;;;;15.66;74.01;101583.00;5012414;28;20767;-61
2021/07/20 06:16:28;;;;;;;30.27;17.93;;;;;;;15.57;74.45;101590.47;5013778;28;20507;-61
2021/07/20 06:18:56;;;;;;;10.10;5.93;;;;;;;15.55;75.14;101590.44;5015515;28;20467;-61
2021/07/20 06:21:24;;;;;;;15.53;5.10;;;;;;;15.60;74.85;101594.09;5014262;28;20484;-61
2021/07/20 06:23:52;;;;;;;11.47;5.80;;;;;;;15.66;75.21;101590.81;5012289;28;20780;-58
2021/07/20 06:26:22;;;;;;;15.00;6.00;;;;;;;15.77;74.85;101586.88;5013945;28;20481;-58
2021/07/20 06:28:53;;;;;;;11.10;5.30;;;;;;;15.91;73.77;101584.69;5015279;28;20467;-59
2021/07/20 06:31:21;;;;;;;13.70;5.80;;;;;;;16.05;72.75;101587.78;5013701;28;20749;-59
2021/07/20 06:33:49;;;;;;;11.17;5.17;;;;;;;15.89;73.18;101578.56;5015344;28;20516;-58
2021/07/20 06:36:18;;;;;;;8.13;4.90;;;;;;;15.90;73.41;101584.66;5013809;28;20494;-59
2021/07/20 06:38:46;;;;;;;10.33;4.70;;;;;;;15.85;74.20;101581.03;5015169;28;20555;-59
2021/07/20 06:41:13;;;;;;;16.00;6.13;;;;;;;15.87;74.26;101585.44;5017007;28;20482;-59
2021/07/20 06:43:41;;;;;;;9.97;4.73;;;;;;;16.16;73.58;101582.06;5019214;28;20488;-59
2021/07/20 06:46:12;;;;;;;23.77;12.17;;;;;;;16.37;72.63;101583.56;5017646;28;20491;-59
2021/07/20 06:48:41;;;;;;;37.73;22.17;;;;;;;16.50;72.64;101584.84;5019081;28;20552;-59
2021/07/20 06:51:08;;;;;;;24.57;11.63;;;;;;;16.72;71.87;101589.81;5008048;28;20497;-59
2021/07/20 06:53:36;;;;;;;29.27;17.97;;;;;;;16.77;71.23;101582.13;5018822;28;20771;-59
2021/07/20 06:56:05;;;;;;;10.23;6.20;;;;;;;16.86;69.76;101581.53;5017072;28;20477;-59
2021/07/20 06:58:34;;;;;;;8.70;5.30;;;;;;;16.82;70.97;101585.78;5018764;28;20488;-59
2021/07/20 07:01:03;;;;;;;11.90;5.53;;;;;;;16.77;68.08;101579.53;5017449;28;20491;-58
2021/07/20 07:03:38;;;;;;;17.40;9.83;;;;;;;17.08;66.10;101583.06;5018836;28;20473;-59
2021/07/20 07:06:06;;;;;;;21.20;11.93;;;;;;;17.20;65.78;101576.41;5017102;28;20900;-59
2021/07/20 07:08:36;;;;;;;11.67;6.60;;;;;;;17.19;66.41;101583.38;5018466;28;20445;-59
2021/07/20 07:11:12;;;;;;;12.47;6.30;;;;;;;17.25;65.13;101580.03;5017330;28;20509;-58
2021/07/20 07:13:40;;;;;;;11.20;5.17;;;;;;;17.38;63.74;101582.13;5018691;28;20458;-59
2021/07/20 07:16:08;;;;;;;24.17;14.10;;;;;;;17.34;64.88;101582.03;5016926;28;20488;-59
2021/07/20 07:18:38;;;;;;;11.80;5.90;;;;;;;17.41;66.07;101577.00;5018278;28;20511;-59
2021/07/20 07:21:06;;;;;;;11.40;5.80;;;;;;;17.50;64.68;101585.91;5016879;28;20490;-59
2021/07/20 07:23:35;;;;;;;17.73;10.10;;;;;;;17.68;65.44;101581.16;5018469;28;20462;-59
2021/07/20 07:26:02;;;;;;;14.17;7.70;;;;;;;17.83;64.49;101579.78;5016788;28;20484;-59
2021/07/20 07:28:30;;;;;;;13.00;6.53;;;;;;;17.76;63.16;101577.88;5018302;28;20936;-59
2021/07/20 07:30:58;;;;;;;10.80;6.20;;;;;;;17.72;61.87;101579.53;5016727;28;20473;-60
2021/07/20 07:33:26;;;;;;;13.30;6.03;;;;;;;17.58;61.42;101578.28;5014832;28;20973;-59
2021/07/20 07:35:55;;;;;;;15.70;7.00;;;;;;;17.43;62.62;101582.25;5016787;28;20480;-59
2021/07/20 07:38:23;;;;;;;16.13;6.70;;;;;;;17.52;61.43;101571.19;5018121;28;20828;-59
2021/07/20 07:40:55;;;;;;;13.37;5.70;;;;;;;17.24;61.83;101573.06;5016756;28;20880;-59
2021/07/20 07:43:25;;;;;;;14.20;6.27;;;;;;;17.40;62.31;101583.03;5017709;28;20790;-59
2021/07/20 07:45:53;;;;;;;15.83;6.20;;;;;;;17.73;61.18;101577.81;5009181;28;22156;-61
2021/07/20 07:48:21;;;;;;;20.93;6.30;;;;;;;17.85;59.92;101577.22;5030328;28;20474;-59
2021/07/20 07:50:49;;;;;;;22.53;12.13;;;;;;;17.88;61.01;101580.78;5016541;28;20481;-59
2021/07/20 07:53:18;;;;;;;16.50;9.10;;;;;;;18.14;61.05;101588.41;5017815;28;20460;-59
2021/07/20 07:55:46;;;;;;;11.67;6.40;;;;;;;18.15;57.81;101576.22;5016160;28;20929;-59
2021/07/20 07:58:15;;;;;;;13.60;8.03;;;;;;;18.15;58.63;101581.44;5017480;28;20485;-59
2021/07/20 08:00:44;;;;;;;13.53;6.60;;;;;;;17.99;58.48;101590.63;5016287;28;20598;-59
2021/07/20 08:03:13;;;;;;;10.53;6.07;;;;;;;18.09;59.97;101584.78;5017535;28;20465;-59
2021/07/20 08:05:43;;;;;;;16.40;7.93;;;;;;;18.06;59.13;101589.94;5016575;28;20901;-59
2021/07/20 08:08:11;;;;;;;13.40;6.40;;;;;;;18.01;57.33;101583.69;5017516;28;20769;-60
2021/07/20 08:10:42;;;;;;;14.63;6.80;;;;;;;18.29;58.26;101584.38;5016374;28;20482;-59
2021/07/20 08:13:11;;;;;;;14.37;7.80;;;;;;;18.48;57.51;101585.69;5017371;28;20458;-59
2021/07/20 08:15:39;;;;;;;15.67;6.60;;;;;;;18.15;58.08;101581.44;5016201;28;20776;-59
2021/07/20 08:18:07;;;;;;;12.37;6.63;;;;;;;18.17;57.33;101595.41;5017167;28;20527;-59
2021/07/20 08:20:35;;;;;;;14.30;7.50;;;;;;;18.10;56.81;101589.16;5016185;28;20484;-59
2021/07/20 08:23:06;;;;;;;13.37;6.90;;;;;;;18.21;56.65;101586.81;5013690;28;20481;-60
2021/07/20 08:25:36;;;;;;;14.37;8.00;;;;;;;18.17;58.77;101593.72;5015655;28;20457;-59
2021/07/20 08:28:08;;;;;;;12.43;7.20;;;;;;;18.41;57.26;101587.25;5017183;28;20833;-59
2021/07/20 08:30:38;;;;;;;9.70;5.83;;;;;;;18.59;57.07;101578.97;5016056;28;20495;-59
2021/07/20 08:33:09;;;;;;;14.20;6.73;;;;;;;18.50;57.95;101586.59;5013454;28;20484;-59
2021/07/20 08:35:38;;;;;;;11.33;6.07;;;;;;;18.70;55.20;101580.91;5015548;28;20467;-60
2021/07/20 08:38:09;;;;;;;9.83;5.47;;;;;;;18.57;55.89;101585.00;5016609;28;20519;-60
2021/07/20 08:40:54;;;;;;;9.97;6.40;;;;;;;18.57;56.74;101585.00;5015900;28;20490;-60
2021/07/20 08:43:33;;;;;;;10.77;5.47;;;;;;;18.84;55.52;101586.44;5016750;28;20462;-59
2021/07/20 08:46:10;;;;;;;12.57;5.97;;;;;;;18.70;54.91;101578.28;5015305;28;20464;-59
2021/07/20 08:48:45;;;;;;;12.70;7.03;;;;;;;18.65;54.37;101582.56;5016753;28;20464;-59
2021/07/20 08:51:15;;;;;;;13.87;6.97;;;;;;;18.84;55.37;101575.97;5015320;28;20832;-59
2021/07/20 08:53:48;;;;;;;9.83;5.80;;;;;;;18.82;55.92;101580.28;5016830;28;20463;-60
2021/07/20 08:56:17;;;;;;;13.97;8.43;;;;;;;19.09;54.02;101590.47;5014894;28;20493;-60
2021/07/20 08:58:51;;;;;;;9.90;5.83;;;;;;;19.26;52.98;101590.78;5016398;28;20492;-59
2021/07/20 09:01:25;;;;;;;15.77;8.97;;;;;;;19.26;52.46;101585.56;5015227;28;20479;-60
2021/07/20 09:03:58;;;;;;;14.10;6.83;;;;;;;19.26;54.44;101587.28;5015946;28;20974;-59
2021/07/20 09:06:29;;;;;;;12.47;6.60;;;;;;;19.27;53.44;101589.03;5014902;28;20578;-60
2021/07/20 09:09:01;;;;;;;13.23;6.10;;;;;;;19.36;52.96;101584.00;5016455;28;20462;-59
2021/07/20 09:11:33;;;;;;;12.90;5.83;;;;;;;19.01;54.73;101585.03;5014943;28;20479;-59
2021/07/20 09:14:09;;;;;;;10.40;5.97;;;;;;;19.17;53.11;101587.97;5016613;28;20463;-59
2021/07/20 09:16:40;;;;;;;11.50;6.60;;;;;;;19.16;52.99;101586.22;5014665;28;20986;-59
2021/07/20 09:19:12;;;;;;;19.23;11.03;;;;;;;19.22;52.93;101581.09;5016224;28;20492;-59
2021/07/20 09:21:44;;;;;;;12.90;7.10;;;;;;;19.30;55.59;101589.97;5009157;28;20939;-60
2021/07/20 09:24:15;;;;;;;10.97;5.87;;;;;;;18.90;54.66;101589.16;5022297;28;20460;-59
2021/07/20 09:26:45;;;;;;;11.17;6.10;;;;;;;19.02;54.93;101592.06;5014598;28;20491;-59
2021/07/20 09:29:18;;;;;;;12.87;6.57;;;;;;;19.18;54.35;101595.00;5012843;28;20459;-60
2021/07/20 09:32:03;;;;;;;15.80;6.10;;;;;;;18.88;54.09;101601.34;5014696;28;20483;-59
2021/07/20 09:34:44;;;;;;;10.57;6.33;;;;;;;18.94;56.07;101596.22;5016071;28;20869;-59
2021/07/20 09:37:17;;;;;;;12.83;6.27;;;;;;;19.18;55.99;101595.00;5014403;28;20495;-59
2021/07/20 09:39:47;;;;;;;10.57;6.00;;;;;;;19.33;55.25;101590.91;5015830;28;20488;-59
2021/07/20 09:42:21;;;;;;;17.60;9.17;;;;;;;19.50;55.42;101605.19;5014707;28;20791;-62
2021/07/20 09:44:53;;;;;;;11.40;5.90;;;;;;;19.48;53.31;101593.78;5015713;28;20463;-62
2021/07/20 09:47:26;;;;;;;13.47;6.97;;;;;;;19.50;53.87;101591.19;5014273;28;20798;-62
2021/07/20 09:50:09;;;;;;;12.13;6.17;;;;;;;19.25;53.06;101596.88;5015918;28;20486;-61
2021/07/20 09:52:49;;;;;;;11.30;5.87;;;;;;;19.51;53.82;101588.63;5014533;28;20489;-60
2021/07/20 09:55:25;;;;;;;11.33;6.23;;;;;;;19.94;51.61;101587.59;5015624;28;20460;-60
2021/07/20 09:58:15;;;;;;;18.00;9.47;;;;;;;20.30;51.50;101586.41;5015342;28;20854;-60
2021/07/20 10:00:51;;;;;;;11.40;5.73;;;;;;;20.26;48.89;101589.84;5014493;28;20490;-59
2021/07/20 10:03:24;;;;;;;15.03;7.50;;;;;;;20.20;50.17;101584.53;5015682;28;20495;-60
2021/07/20 10:05:55;;;;;;;12.43;6.63;;;;;;;20.11;50.54;101580.03;5014109;28;20884;-60
2021/07/20 10:08:27;;;;;;;13.47;6.47;;;;;;;19.86;52.21;101584.84;5015820;28;20487;-60
2021/07/20 10:11:06;;;;;;;9.53;5.77;;;;;;;19.78;51.41;101582.09;5007571;28;20494;-59
2021/07/20 10:13:38;;;;;;;11.10;5.70;;;;;;;19.46;53.00;101581.53;5024306;28;20469;-60
2021/07/20 10:16:15;;;;;;;11.47;6.23;;;;;;;19.77;53.34;101575.09;4966519;28;20489;-60
2021/07/20 10:18:45;;;;;;;14.87;8.10;;;;;;;20.32;52.09;101579.47;4990376;28;20588;-59
2021/07/20 10:21:15;;;;;;;9.60;5.23;;;;;;;20.58;50.08;101576.31;4979140;28;20933;-60
2021/07/20 10:23:45;;;;;;;11.73;5.70;;;;;;;20.60;49.35;101579.81;4980354;28;20477;-60
2021/07/20 10:26:25;;;;;;;12.03;5.83;;;;;;;20.75;50.11;101568.66;4978844;28;20483;-60
2021/07/20 10:28:59;;;;;;;14.00;7.50;;;;;;;20.70;50.62;101570.34;4980317;28;20462;-59
2021/07/20 10:31:31;;;;;;;11.93;7.03;;;;;;;20.46;49.07;101573.53;4978818;28;20486;-60
2021/07/20 10:34:03;;;;;;;14.20;8.33;;;;;;;20.61;49.36;101565.00;4980258;28;20463;-59
2021/07/20 10:36:36;;;;;;;14.60;8.50;;;;;;;20.53;49.99;101567.50;4978654;28;20485;-60
2021/07/20 10:39:08;;;;;;;9.87;5.57;;;;;;;20.30;50.94;101565.44;4981896;28;20796;-60
2021/07/20 10:41:41;;;;;;;14.43;7.70;;;;;;;20.07;52.48;101568.63;5014284;28;20480;-59
2021/07/20 10:44:13;;;;;;;12.70;5.50;;;;;;;20.02;51.22;101567.66;5019222;28;20467;-59
2021/07/20 10:46:44;;;;;;;11.83;5.87;;;;;;;19.99;51.54;101567.59;5017436;28;20484;-60
2021/07/20 10:49:16;;;;;;;21.03;11.10;;;;;;;19.83;53.32;101564.72;5018994;28;20456;-59
2021/07/20 10:51:44;;;;;;;14.53;5.60;;;;;;;19.92;52.33;101563.09;5017728;28;20485;-59
2021/07/20 10:54:21;;;;;;;10.40;5.77;;;;;;;20.27;51.73;101562.78;5019143;28;20555;-60
2021/07/20 10:56:55;;;;;;;17.90;5.83;;;;;;;20.51;50.49;101558.75;5017279;28;20519;-60
2021/07/20 10:59:33;;;;;;;16.50;6.47;;;;;;;21.17;49.45;101550.78;5018578;28;20489;-59
2021/07/20 11:02:08;;;;;;;13.40;7.17;;;;;;;21.48;50.41;101544.94;5017506;28;20471;-60
2021/07/20 11:04:45;;;;;;;12.50;7.10;;;;;;;21.39;48.86;101545.75;5018711;28;20985;-60
2021/07/20 11:07:15;;;;;;;12.87;6.40;;;;;;;21.08;48.16;101534.97;5017174;28;20611;-59
2021/07/20 11:09:43;;;;;;;11.37;5.50;;;;;;;20.53;51.30;101548.28;5018392;28;20551;-60
2021/07/20 11:12:11;;;;;;;16.93;8.63;;;;;;;20.48;51.09;101546.50;5017220;28;20491;-59
2021/07/20 11:14:47;;;;;;;10.50;6.27;;;;;;;20.31;51.91;101548.00;5018779;28;20453;-59
2021/07/20 11:17:19;;;;;;;11.40;6.60;;;;;;;20.35;51.31;101537.56;5016963;28;20579;-60
2021/07/20 11:19:49;;;;;;;11.07;6.93;;;;;;;20.22;52.85;101538.25;5018228;28;20485;-60
2021/07/20 11:22:17;;;;;;;10.73;6.10;;;;;;;20.33;52.43;101549.78;5013860;28;20484;-60
2021/07/20 11:24:46;;;;;;;11.07;6.27;;;;;;;20.67;52.35;101551.06;5018242;28;20552;-60
2021/07/20 11:27:16;;;;;;;12.97;6.87;;;;;;;21.06;49.00;101549.78;5012358;28;20504;-62
2021/07/20 11:29:44;;;;;;;14.33;7.20;;;;;;;21.07;50.06;101543.69;5018129;28;20468;-60
2021/07/20 11:32:17;;;;;;;9.97;6.30;;;;;;;21.23;49.15;101542.09;5017068;28;20485;-61
2021/07/20 11:34:50;;;;;;;13.80;7.77;;;;;;;21.37;47.87;101538.75;5018250;28;20461;-60